PDT,Max TemperatureF,Mean TemperatureF,Min TemperatureF,Max Dew PointF,MeanDew PointF,Min DewpointF,Max Humidity, Mean Humidity, Min Humidity, Max Sea Level PressureIn, Mean Sea Level PressureIn, Min Sea Level PressureIn, Max VisibilityMiles, Mean VisibilityMiles, Min VisibilityMiles, Max Wind SpeedMPH, Mean Wind SpeedMPH, Max Gust SpeedMPH,PrecipitationIn, CloudCover, Events, WindDirDegrees
2013-8-1,85,67,49,49,46,39,83,52,20,30.04,30.00,29.97,10,10,10,17,4,25,0.00,0,,350
2013-8-2,92,71,50,51,46,36,86,53,20,29.98,29.92,29.85,10,10,10,12,3,16,0.00,0,,338
2013-8-3,93,74,54,54,50,47,83,52,21,29.93,29.89,29.84,10,10,8,13,2,18,0.00,0,,171
2013-8-4,91,71,51,54,50,44,89,56,23,29.98,29.92,29.86,10,10,9,16,6,24,0.00,0,,155
2013-8-5,91,72,52,52,49,41,96,58,19,30.02,29.94,29.86,10,10,10,17,6,24,0.00,2,,158
2013-8-6,88,69,50,54,50,48,89,59,28,30.02,29.96,29.90,10,10,9,17,7,22,0.00,1,,155
2013-8-7,80,68,55,53,51,50,86,64,42,30.08,30.02,29.97,10,10,10,17,8,22,0.00,3,,141
2013-8-8,86,70,53,54,51,49,89,61,32,30.02,29.96,29.88,10,10,10,13,1,21,0.00,2,,20
2013-8-9,88,71,53,53,51,48,89,58,26,29.96,29.89,29.83,10,10,10,15,4,23,0.00,0,,154
2013-8-10,88,71,53,55,52,50,89,60,31,30.01,29.98,29.93,10,10,10,15,2,21,0.00,0,,33
2013-8-11,92,73,53,54,49,45,83,52,21,30.01,29.95,29.89,10,10,10,14,2,18,0.00,0,,360
2013-8-12,94,73,51,50,45,35,83,52,20,29.97,29.93,29.88,10,10,10,17,2,21,0.00,0,,264
2013-8-13,97,75,53,50,46,39,77,48,19,29.99,29.94,29.89,10,10,10,16,2,22,0.00,0,,328
2013-8-14,93,73,53,58,47,33,72,43,13,29.98,29.93,29.89,10,10,10,15,4,21,0.00,0,,348
2013-8-15,94,76,57,61,58,54,93,62,30,29.94,29.92,29.88,10,10,10,14,3,23,0.00,0,,316
2013-8-16,94,77,60,61,56,41,90,60,30,29.98,29.94,29.90,10,10,10,14,3,21,0.00,0,,7
2013-8-17,95,76,57,55,52,47,80,52,23,29.98,29.92,29.85,10,10,10,13,3,18,0.00,0,,352
2013-8-18,105,83,60,59,54,46,78,48,17,29.88,29.82,29.74,10,10,10,14,2,20,0.00,0,,340
2013-8-19,98,82,65,60,57,50,73,49,24,29.86,29.82,29.78,10,9,7,8,1,10,0.00,0,,52
2013-8-20,92,77,61,59,56,54,84,58,32,29.86,29.81,29.75,10,10,10,16,7,24,0.00,0,,156
2013-8-21,90,74,58,58,55,53,93,64,34,29.92,29.86,29.79,10,10,10,13,6,16,0.00,0,,134
2013-8-22,90,73,55,54,52,48,86,55,24,29.92,29.88,29.83,10,10,10,10,4,,0.00,0,,107
2013-8-23,92,73,53,53,49,43,86,52,18,29.90,29.85,29.81,10,10,10,14,3,22,0.00,0,,357
2013-8-24,85,69,52,54,51,48,83,57,31,29.88,29.84,29.82,10,10,10,15,3,20,0.00,0,,315
2013-8-25,84,71,58,58,56,54,87,64,40,29.92,29.89,29.86,10,10,10,13,4,21,T,3,Rain,272
2013-8-26,84,70,55,54,50,44,86,56,25,30.01,29.95,29.90,10,10,10,14,3,18,0.00,1,,349
2013-8-27,90,71,52,54,50,46,83,55,27,29.93,29.86,29.79,10,10,10,14,3,22,0.00,0,,327
2013-8-28,91,73,54,59,55,50,86,58,29,29.92,29.87,29.83,10,10,10,13,1,17,0.00,0,,18
2013-8-29,89,73,56,59,56,54,87,61,34,30.07,30.00,29.93,10,10,10,15,3,22,0.00,0,,340
2013-8-30,92,78,64,52,50,47,26,26,25,30.08,30.02,29.95,10,10,10,15,13,,0.00,0,,342
2013-8-31,93,73,53,55,52,49,89,58,27,30.00,29.92,29.84,10,10,10,10,1,15,0.00,0,,23